createdAt,value
2024-01-31T00:00:11.064Z,59.51
2024-01-31T00:02:39.709Z,59.61
2024-01-31T00:05:08.817Z,59.61
2024-01-31T00:07:37.370Z,59.54
2024-01-31T00:10:07.947Z,59.40
2024-01-31T00:12:36.548Z,59.38
2024-01-31T00:15:05.316Z,59.24
2024-01-31T00:17:33.760Z,59.26
2024-01-31T00:20:02.283Z,59.26
2024-01-31T00:22:30.870Z,59.17
2024-01-31T00:24:59.344Z,59.16
2024-01-31T00:27:29.214Z,58.91
2024-01-31T00:29:57.628Z,59.07
2024-01-31T00:32:26.689Z,59.25
2024-01-31T00:34:55.196Z,59.25
2024-01-31T00:37:23.629Z,59.32
2024-01-31T00:39:52.085Z,59.27
2024-01-31T00:42:20.533Z,59.25
2024-01-31T00:44:50.494Z,59.25
2024-01-31T00:47:19.173Z,59.19
2024-01-31T00:49:47.823Z,59.28
2024-01-31T00:52:17.733Z,59.17
2024-01-31T00:54:48.613Z,59.11
2024-01-31T00:57:17.242Z,58.99
2024-01-31T00:59:45.687Z,58.80
2024-01-31T01:02:17.482Z,58.90
2024-01-31T01:04:46.008Z,58.90
2024-01-31T01:07:15.160Z,58.57
2024-01-31T01:09:43.536Z,58.42
2024-01-31T01:12:12.783Z,57.90
2024-01-31T01:14:41.215Z,57.86
2024-01-31T01:17:09.683Z,57.71
2024-01-31T01:19:39.587Z,57.74
2024-01-31T01:22:08.232Z,57.90
2024-01-31T01:24:36.673Z,58.00
2024-01-31T01:27:05.412Z,58.16
2024-01-31T01:29:33.865Z,58.00
2024-01-31T01:32:02.309Z,57.78
2024-01-31T01:34:30.856Z,57.90
2024-01-31T01:37:00.752Z,57.81
2024-01-31T01:39:29.320Z,57.90
2024-01-31T01:42:00.571Z,57.82
2024-01-31T01:44:32.391Z,57.68
2024-01-31T01:47:01.678Z,57.58
2024-01-31T01:49:33.608Z,57.44
2024-01-31T01:52:04.005Z,57.37
2024-01-31T01:54:33.576Z,57.40
2024-01-31T01:57:02.384Z,57.35
2024-01-31T01:59:30.907Z,57.15
2024-01-31T02:02:00.915Z,57.04
2024-01-31T02:04:31.369Z,56.98
2024-01-31T02:07:00.437Z,56.93
2024-01-31T02:09:30.881Z,56.72
2024-01-31T02:11:59.392Z,56.89
2024-01-31T02:14:28.162Z,56.84
2024-01-31T02:16:58.646Z,56.91
2024-01-31T02:19:27.347Z,56.68
2024-01-31T02:22:02.112Z,56.34
2024-01-31T02:24:31.992Z,56.52
2024-01-31T02:27:00.587Z,56.60
2024-01-31T02:29:29.138Z,56.27
2024-01-31T02:31:57.540Z,56.02
2024-01-31T02:34:26.843Z,55.80
2024-01-31T02:36:55.372Z,55.82
2024-01-31T02:39:24.030Z,56.00
2024-01-31T02:41:54.307Z,56.13
2024-01-31T02:44:24.206Z,56.23
2024-01-31T02:46:52.662Z,56.09
2024-01-31T02:49:21.364Z,56.10
2024-01-31T02:51:49.839Z,55.94
2024-01-31T02:54:18.306Z,55.95
2024-01-31T02:56:46.698Z,55.86
2024-01-31T02:59:16.560Z,55.55
2024-01-31T03:01:48.615Z,55.05
2024-01-31T03:04:17.206Z,54.55
2024-01-31T03:06:45.926Z,54.18
2024-01-31T03:09:14.473Z,54.00
2024-01-31T03:11:42.924Z,53.55
2024-01-31T03:14:11.305Z,53.48
2024-01-31T03:16:41.681Z,53.39
2024-01-31T03:19:10.554Z,53.43
2024-01-31T03:21:39.661Z,53.62
2024-01-31T03:24:08.195Z,53.73
2024-01-31T03:26:36.582Z,53.56
2024-01-31T03:29:05.019Z,53.89
2024-01-31T03:31:33.423Z,53.90
2024-01-31T03:34:03.512Z,53.88
2024-01-31T03:36:32.019Z,53.87
2024-01-31T03:39:01.069Z,54.01
2024-01-31T03:41:29.808Z,54.08
2024-01-31T03:43:58.481Z,53.81
2024-01-31T03:46:26.997Z,53.66
2024-01-31T03:48:55.541Z,53.55
2024-01-31T03:51:26.600Z,53.33
2024-01-31T03:53:55.035Z,53.53
2024-01-31T03:56:23.439Z,53.46
2024-01-31T03:58:51.926Z,53.35
2024-01-31T04:01:20.543Z,53.34
2024-01-31T04:03:49.023Z,53.27
2024-01-31T04:06:17.711Z,53.21
2024-01-31T04:08:47.681Z,52.98
2024-01-31T04:11:16.520Z,52.94
2024-01-31T04:13:48.336Z,52.73
2024-01-31T04:16:17.963Z,52.72
2024-01-31T04:18:46.554Z,52.49
2024-01-31T04:21:22.176Z,51.86
2024-01-31T04:23:52.332Z,52.21
2024-01-31T04:26:20.778Z,52.33
2024-01-31T04:28:49.551Z,52.68
2024-01-31T04:31:18.523Z,52.82
2024-01-31T04:33:47.097Z,52.91
2024-01-31T04:36:15.599Z,53.14
2024-01-31T04:38:44.166Z,53.19
2024-01-31T04:41:14.068Z,53.20
2024-01-31T04:43:43.521Z,53.30
2024-01-31T04:46:15.502Z,53.14
2024-01-31T04:48:44.251Z,53.43
2024-01-31T04:51:12.837Z,53.49
2024-01-31T04:53:42.742Z,53.56
2024-01-31T04:56:11.209Z,53.59
2024-01-31T04:58:41.852Z,53.60
2024-01-31T05:01:10.478Z,53.65
2024-01-31T05:03:39.021Z,53.73
2024-01-31T05:06:08.068Z,53.70
2024-01-31T05:08:36.480Z,53.66
2024-01-31T05:11:05.044Z,53.68
2024-01-31T05:13:33.598Z,53.48
2024-01-31T05:16:03.489Z,53.41
2024-01-31T05:18:32.022Z,53.43
2024-01-31T05:21:02.290Z,53.35
2024-01-31T05:23:30.940Z,53.33
2024-01-31T05:25:59.367Z,53.36
2024-01-31T05:28:27.799Z,53.43
2024-01-31T05:30:56.269Z,53.36
2024-01-31T05:33:26.208Z,53.30
2024-01-31T05:35:54.802Z,53.37
2024-01-31T05:38:23.429Z,53.41
2024-01-31T05:40:51.938Z,53.43
2024-01-31T05:43:20.505Z,53.44
2024-01-31T05:45:49.029Z,53.50
2024-01-31T05:48:17.731Z,53.43
2024-01-31T05:50:47.806Z,53.48
2024-01-31T05:53:16.335Z,53.64
2024-01-31T05:55:44.759Z,53.55
2024-01-31T05:58:13.461Z,53.56
2024-01-31T06:00:42.491Z,53.57
2024-01-31T06:03:11.063Z,53.65
2024-01-31T06:05:39.639Z,53.82
2024-01-31T06:08:09.637Z,53.72
2024-01-31T06:10:38.110Z,53.84
2024-01-31T06:13:06.854Z,53.95
2024-01-31T06:15:36.050Z,54.15
2024-01-31T06:18:04.562Z,54.21
2024-01-31T06:20:33.092Z,54.33
2024-01-31T06:23:01.524Z,54.35
2024-01-31T06:25:31.572Z,54.36
2024-01-31T06:28:00.105Z,54.49
2024-01-31T06:30:32.987Z,54.52
2024-01-31T06:33:07.647Z,54.55
2024-01-31T06:35:36.650Z,54.64
2024-01-31T06:38:05.401Z,54.66
2024-01-31T06:40:35.403Z,54.57
2024-01-31T06:43:04.088Z,54.52
2024-01-31T06:45:32.466Z,54.53
2024-01-31T06:48:02.411Z,54.59
2024-01-31T06:50:30.898Z,54.63
2024-01-31T06:52:59.348Z,54.68
2024-01-31T06:55:28.144Z,54.72
2024-01-31T06:57:58.009Z,54.59
2024-01-31T07:00:26.492Z,54.52
2024-01-31T07:02:56.467Z,54.50
2024-01-31T07:05:25.059Z,54.44
2024-01-31T07:07:53.523Z,54.32
2024-01-31T07:10:21.952Z,54.32
2024-01-31T07:12:51.791Z,54.17
2024-01-31T07:15:22.187Z,54.08
2024-01-31T07:17:50.723Z,54.20
2024-01-31T07:20:19.690Z,54.24
2024-01-31T07:22:48.196Z,54.36
2024-01-31T07:25:17.900Z,54.31
2024-01-31T07:27:46.489Z,54.48
2024-01-31T07:30:15.124Z,54.43
2024-01-31T07:32:45.298Z,54.22
2024-01-31T07:35:13.900Z,54.28
2024-01-31T07:37:43.075Z,54.24
2024-01-31T07:40:12.179Z,54.17
2024-01-31T07:42:41.178Z,54.29
2024-01-31T07:45:10.424Z,54.19
2024-01-31T07:47:40.086Z,54.11
2024-01-31T07:50:10.745Z,54.04
2024-01-31T07:52:39.316Z,54.08
2024-01-31T07:55:09.471Z,53.98
2024-01-31T07:57:37.961Z,54.23
2024-01-31T08:00:07.851Z,54.02
2024-01-31T08:02:36.419Z,53.95
2024-01-31T08:05:05.083Z,53.72
2024-01-31T08:07:36.987Z,53.50
2024-01-31T08:10:07.555Z,53.49
2024-01-31T08:12:36.074Z,53.43
2024-01-31T08:15:08.255Z,53.04
2024-01-31T08:17:36.785Z,52.88
2024-01-31T08:20:06.145Z,52.75
2024-01-31T08:22:38.006Z,52.70
2024-01-31T08:25:09.189Z,52.79
2024-01-31T08:27:38.971Z,52.69
2024-01-31T08:30:08.899Z,52.62
2024-01-31T08:32:37.283Z,52.48
2024-01-31T08:35:06.399Z,52.40
2024-01-31T08:37:36.471Z,52.16
2024-01-31T08:42:34.934Z,52.47
2024-01-31T08:45:03.413Z,52.41
2024-01-31T08:47:32.150Z,52.40
2024-01-31T08:50:00.656Z,52.41
2024-01-31T08:52:29.401Z,52.41
2024-01-31T08:54:59.276Z,52.35
2024-01-31T08:57:27.828Z,52.40
2024-01-31T08:59:56.209Z,52.46
2024-01-31T09:02:24.707Z,52.25
2024-01-31T09:04:53.202Z,52.00
2024-01-31T09:07:21.795Z,51.66
2024-01-31T09:09:50.622Z,51.68
2024-01-31T09:12:20.684Z,50.99
2024-01-31T09:14:49.069Z,50.56
2024-01-31T09:17:17.536Z,50.44
2024-01-31T09:19:47.689Z,50.37
2024-01-31T09:22:16.543Z,50.08
2024-01-31T09:24:45.174Z,49.53
2024-01-31T09:27:13.809Z,49.69
2024-01-31T09:29:44.621Z,49.12
2024-01-31T09:32:13.401Z,48.43
2024-01-31T09:34:42.024Z,48.00
2024-01-31T09:37:10.637Z,47.86
2024-01-31T09:39:38.997Z,47.74
2024-01-31T09:42:08.289Z,48.00
2024-01-31T09:44:37.253Z,48.00
2024-01-31T09:47:09.190Z,47.60
2024-01-31T09:49:37.747Z,47.19
2024-01-31T09:52:08.116Z,46.68
2024-01-31T09:54:36.817Z,46.56
2024-01-31T09:57:05.415Z,45.96
2024-01-31T09:59:33.883Z,46.01
2024-01-31T10:02:03.902Z,46.15
2024-01-31T10:04:33.861Z,46.39
2024-01-31T10:07:02.363Z,46.22
2024-01-31T10:09:31.031Z,46.31
2024-01-31T10:11:59.544Z,46.75
2024-01-31T10:14:28.796Z,45.83
2024-01-31T10:16:58.222Z,46.02
2024-01-31T10:19:26.789Z,46.02
2024-01-31T10:22:00.124Z,45.72
2024-01-31T10:24:29.375Z,45.90
2024-01-31T10:26:58.008Z,45.87
2024-01-31T10:29:26.663Z,46.15
2024-01-31T10:31:56.131Z,46.11
2024-01-31T10:34:32.954Z,46.38
2024-01-31T10:37:46.383Z,46.00
2024-01-31T10:40:00.968Z,44.85
2024-01-31T10:42:29.560Z,45.25
2024-01-31T10:45:00.220Z,45.21
2024-01-31T10:47:28.921Z,45.22
2024-01-31T10:49:59.749Z,44.51
2024-01-31T10:52:33.747Z,44.88
2024-01-31T10:55:07.945Z,44.58
2024-01-31T10:57:39.016Z,44.94
2024-01-31T11:00:11.197Z,44.62
2024-01-31T11:02:40.909Z,44.87
2024-01-31T11:05:09.939Z,45.13
2024-01-31T11:07:47.892Z,44.90
2024-01-31T11:10:18.901Z,45.10
2024-01-31T11:12:59.197Z,44.52
2024-01-31T11:15:31.812Z,44.76
2024-01-31T11:18:08.222Z,44.92
2024-01-31T11:20:38.557Z,44.64
2024-01-31T11:23:09.235Z,44.50
2024-01-31T11:25:40.073Z,44.69
2024-01-31T11:28:09.116Z,44.39
2024-01-31T11:30:37.835Z,43.17
2024-01-31T11:33:06.692Z,43.44
2024-01-31T11:35:35.496Z,43.56
2024-01-31T11:38:04.264Z,43.48
2024-01-31T11:40:34.131Z,43.55
2024-01-31T11:43:02.690Z,43.40
2024-01-31T11:45:31.258Z,43.55
2024-01-31T11:48:00.937Z,43.39
2024-01-31T11:50:29.837Z,43.64
2024-01-31T11:52:59.009Z,43.49
2024-01-31T11:55:31.115Z,43.67
2024-01-31T11:58:01.196Z,43.61
2024-01-31T12:00:30.736Z,43.45
2024-01-31T12:02:59.271Z,43.58
2024-01-31T12:05:28.017Z,43.73
2024-01-31T12:08:00.381Z,43.80
2024-01-31T12:10:29.713Z,44.30
2024-01-31T12:13:00.741Z,43.89
2024-01-31T12:15:32.417Z,43.96
2024-01-31T12:18:02.493Z,44.15
2024-01-31T12:20:32.651Z,44.13
2024-01-31T12:23:01.274Z,43.69
2024-01-31T12:25:29.677Z,43.79
2024-01-31T12:27:58.257Z,44.03
2024-01-31T12:30:26.795Z,43.88
2024-01-31T12:32:56.758Z,44.08
2024-01-31T12:35:25.280Z,44.28
2024-01-31T12:37:53.914Z,44.53
2024-01-31T12:40:22.333Z,44.51
2024-01-31T12:42:51.383Z,43.94
2024-01-31T12:45:20.171Z,44.29
2024-01-31T12:47:50.884Z,44.61
2024-01-31T12:50:21.079Z,44.74
2024-01-31T12:52:49.767Z,44.99
2024-01-31T12:55:18.307Z,44.81
2024-01-31T12:57:46.786Z,45.16
2024-01-31T13:00:16.268Z,45.36
2024-01-31T13:02:44.889Z,45.46
2024-01-31T13:05:14.673Z,45.45
2024-01-31T13:07:45.136Z,45.52
2024-01-31T13:10:14.078Z,45.69
2024-01-31T13:12:42.537Z,45.66
2024-01-31T13:15:11.241Z,45.54
2024-01-31T13:17:39.777Z,45.21
2024-01-31T13:20:10.602Z,45.25
2024-01-31T13:22:39.148Z,45.17
2024-01-31T13:25:10.078Z,44.92
2024-01-31T13:27:38.487Z,45.15
2024-01-31T13:30:11.810Z,45.38
2024-01-31T13:32:41.812Z,45.46
2024-01-31T13:35:10.932Z,45.33
2024-01-31T13:37:39.398Z,45.18
2024-01-31T13:40:11.631Z,45.15
2024-01-31T13:42:40.206Z,45.55
2024-01-31T13:45:09.447Z,45.62
2024-01-31T13:47:38.595Z,45.51
2024-01-31T13:50:08.363Z,45.06
2024-01-31T13:52:36.738Z,45.17
2024-01-31T13:55:05.497Z,45.17
2024-01-31T13:57:35.352Z,45.09
2024-01-31T14:00:07.696Z,45.16
2024-01-31T14:02:37.751Z,45.13
2024-01-31T14:05:06.488Z,45.25
2024-01-31T14:07:34.968Z,45.20
2024-01-31T14:10:03.406Z,45.18
2024-01-31T14:12:31.955Z,45.29
2024-01-31T14:15:02.367Z,45.41
2024-01-31T14:17:31.201Z,45.35
2024-01-31T14:19:59.758Z,45.41
2024-01-31T14:22:35.829Z,45.61
2024-01-31T14:25:16.826Z,45.63
2024-01-31T14:27:45.336Z,45.67
2024-01-31T14:30:15.949Z,45.70
2024-01-31T14:32:44.499Z,45.64
2024-01-31T14:35:12.920Z,45.70
2024-01-31T14:37:41.907Z,45.66
2024-01-31T14:40:11.158Z,45.64
2024-01-31T14:42:39.627Z,45.77
2024-01-31T14:45:10.932Z,45.72
2024-01-31T14:47:40.881Z,45.86
2024-01-31T14:50:09.785Z,46.28
2024-01-31T14:52:38.348Z,46.35
2024-01-31T14:55:07.887Z,46.70
2024-01-31T14:57:37.435Z,46.80
2024-01-31T15:00:09.387Z,47.07
2024-01-31T15:02:38.125Z,47.11
2024-01-31T15:05:08.902Z,47.05
2024-01-31T15:07:37.391Z,47.29
2024-01-31T15:10:06.483Z,47.41
2024-01-31T15:12:35.470Z,47.95
2024-01-31T15:15:04.635Z,47.92
2024-01-31T15:17:33.323Z,47.89
2024-01-31T15:20:01.920Z,47.87
2024-01-31T15:22:31.866Z,47.99
2024-01-31T15:25:00.348Z,48.16
2024-01-31T15:27:28.735Z,48.28
2024-01-31T15:29:57.326Z,48.30
2024-01-31T15:32:25.940Z,48.56
2024-01-31T15:34:57.029Z,48.44
2024-01-31T15:37:27.428Z,48.30
2024-01-31T15:39:57.290Z,48.32
2024-01-31T15:42:25.997Z,48.39
2024-01-31T15:44:54.442Z,48.56
2024-01-31T15:47:22.925Z,48.53
2024-01-31T15:49:51.495Z,48.70
2024-01-31T15:52:19.907Z,48.66
2024-01-31T15:54:48.301Z,48.92
2024-01-31T15:57:18.110Z,49.22
2024-01-31T15:59:46.592Z,49.26
2024-01-31T16:02:15.109Z,48.93
2024-01-31T16:04:43.568Z,48.82
2024-01-31T16:07:11.989Z,48.97
2024-01-31T16:09:40.405Z,48.95
2024-01-31T16:12:09.163Z,48.60
2024-01-31T16:14:40.254Z,48.37
2024-01-31T16:17:08.758Z,48.63
2024-01-31T16:19:37.702Z,48.66
2024-01-31T16:22:06.476Z,48.70
2024-01-31T16:24:34.885Z,48.77
2024-01-31T16:27:03.456Z,48.53
2024-01-31T16:29:32.039Z,48.72
2024-01-31T16:32:01.909Z,48.94
2024-01-31T16:34:30.904Z,49.11
2024-01-31T16:36:59.813Z,48.82
2024-01-31T16:39:28.292Z,48.78
2024-01-31T16:41:57.143Z,48.60
2024-01-31T16:44:25.638Z,48.57
2024-01-31T16:46:54.119Z,48.24
2024-01-31T16:49:24.007Z,48.14
2024-01-31T16:51:52.546Z,48.10
2024-01-31T16:54:21.043Z,48.13
2024-01-31T16:56:49.467Z,47.97
2024-01-31T16:59:18.049Z,47.63
2024-01-31T17:01:46.938Z,47.65
2024-01-31T17:04:15.552Z,47.38
2024-01-31T17:06:45.612Z,47.29
2024-01-31T17:09:14.089Z,47.15
2024-01-31T17:11:43.057Z,46.93
2024-01-31T17:14:11.549Z,47.02
2024-01-31T17:16:44.362Z,46.37
2024-01-31T17:19:13.078Z,46.74
2024-01-31T17:21:41.620Z,46.96
2024-01-31T17:24:11.602Z,46.76
2024-01-31T17:26:40.216Z,46.74
2024-01-31T17:29:08.732Z,46.93
2024-01-31T17:31:37.217Z,47.06
2024-01-31T17:34:05.684Z,46.70
2024-01-31T17:36:34.224Z,46.78
2024-01-31T17:39:02.767Z,46.73
2024-01-31T17:41:32.789Z,46.87
2024-01-31T17:44:01.205Z,46.79
2024-01-31T17:46:29.710Z,46.94
2024-01-31T17:48:58.247Z,46.90
2024-01-31T17:51:26.947Z,46.96
2024-01-31T17:53:55.453Z,46.83
2024-01-31T17:56:25.936Z,46.92
2024-01-31T17:58:55.919Z,46.89
2024-01-31T18:01:24.286Z,46.93
2024-01-31T18:03:52.790Z,46.89
2024-01-31T18:06:21.315Z,46.87
2024-01-31T18:08:50.027Z,46.76
2024-01-31T18:11:18.476Z,46.83
2024-01-31T18:13:51.433Z,46.70
2024-01-31T18:16:21.498Z,46.41
2024-01-31T18:18:49.916Z,46.69
2024-01-31T18:21:18.550Z,46.76
2024-01-31T18:23:47.417Z,46.54
2024-01-31T18:26:21.326Z,46.04
2024-01-31T18:28:49.771Z,46.28
2024-01-31T18:31:20.510Z,46.41
2024-01-31T18:33:50.802Z,46.23
2024-01-31T18:36:19.853Z,46.50
2024-01-31T18:38:48.433Z,46.38
2024-01-31T18:41:17.547Z,46.70
2024-01-31T18:43:46.411Z,46.57
2024-01-31T18:46:15.133Z,46.55
2024-01-31T18:48:44.224Z,46.55
2024-01-31T18:51:14.147Z,46.70
2024-01-31T18:53:43.937Z,46.63
2024-01-31T18:56:14.975Z,46.78
2024-01-31T18:58:43.704Z,46.97
2024-01-31T19:01:12.405Z,47.10
2024-01-31T19:03:41.015Z,47.19
2024-01-31T19:06:09.629Z,46.92
2024-01-31T19:08:39.645Z,46.88
2024-01-31T19:11:08.088Z,46.96
2024-01-31T19:13:36.484Z,47.18
2024-01-31T19:16:05.356Z,47.12
2024-01-31T19:18:34.622Z,47.19
2024-01-31T19:21:03.134Z,47.15
2024-01-31T19:23:31.661Z,47.05
2024-01-31T19:26:01.465Z,47.24
2024-01-31T19:28:31.619Z,47.20
2024-01-31T19:31:00.260Z,47.21
2024-01-31T19:33:28.825Z,46.96
2024-01-31T19:35:57.392Z,46.89
2024-01-31T19:38:25.816Z,47.03
2024-01-31T19:40:54.312Z,47.15
2024-01-31T19:43:24.139Z,47.28
2024-01-31T19:45:52.619Z,47.60
2024-01-31T19:48:21.115Z,47.61
2024-01-31T19:50:49.642Z,47.35
2024-01-31T19:53:18.043Z,47.42
2024-01-31T19:55:46.822Z,47.19
2024-01-31T19:58:15.331Z,47.25
2024-01-31T20:00:45.234Z,47.22
2024-01-31T20:03:13.837Z,47.45
2024-01-31T20:05:42.811Z,47.34
2024-01-31T20:08:11.284Z,47.31
2024-01-31T20:10:39.871Z,47.35
2024-01-31T20:13:08.405Z,47.32
2024-01-31T20:15:36.882Z,47.15
2024-01-31T20:18:07.119Z,47.09
2024-01-31T20:20:36.484Z,46.95
2024-01-31T20:23:05.267Z,47.06
2024-01-31T20:25:33.644Z,47.12
2024-01-31T20:28:02.086Z,47.23
2024-01-31T20:30:32.142Z,47.40
2024-01-31T20:33:00.670Z,47.36
2024-01-31T20:35:30.581Z,47.21
2024-01-31T20:37:59.091Z,47.06
2024-01-31T20:40:27.512Z,47.07
2024-01-31T20:42:55.952Z,47.31
2024-01-31T20:45:24.530Z,47.34
2024-01-31T20:47:53.269Z,47.23
2024-01-31T20:50:22.289Z,47.28
2024-01-31T20:52:52.171Z,47.23
2024-01-31T20:55:20.844Z,47.30
2024-01-31T20:57:49.261Z,47.20
2024-01-31T21:00:18.768Z,47.47
2024-01-31T21:02:47.494Z,47.59
2024-01-31T21:05:16.052Z,47.57
2024-01-31T21:07:44.477Z,47.40
2024-01-31T21:10:15.275Z,47.36
2024-01-31T21:12:43.767Z,47.70
2024-01-31T21:15:12.546Z,47.87
2024-01-31T21:17:41.205Z,47.79
2024-01-31T21:20:10.414Z,47.54
2024-01-31T21:22:38.887Z,47.60
2024-01-31T21:25:08.158Z,47.76
2024-01-31T21:27:37.973Z,47.84
2024-01-31T21:30:10.288Z,47.82
2024-01-31T21:32:38.946Z,48.02
2024-01-31T21:35:07.991Z,48.18
2024-01-31T21:37:36.632Z,48.37
2024-01-31T21:40:05.810Z,48.54
2024-01-31T21:42:34.342Z,48.52
2024-01-31T21:45:04.401Z,48.60
2024-01-31T21:47:32.931Z,48.75
2024-01-31T21:50:01.527Z,48.82
2024-01-31T21:52:30.010Z,48.82
2024-01-31T21:54:58.505Z,48.83
2024-01-31T21:57:26.878Z,48.94
2024-01-31T21:59:58.405Z,49.11
2024-01-31T22:02:28.310Z,49.69
2024-01-31T22:04:56.762Z,49.86
2024-01-31T22:07:25.333Z,49.98
2024-01-31T22:09:53.749Z,50.08
2024-01-31T22:12:22.585Z,50.80
2024-01-31T22:14:51.087Z,51.45
2024-01-31T22:17:19.496Z,52.77
2024-01-31T22:19:49.379Z,53.56
2024-01-31T22:22:17.852Z,54.42
2024-01-31T22:24:46.250Z,55.45
2024-01-31T22:27:14.840Z,55.95
2024-01-31T22:29:43.415Z,56.25
2024-01-31T22:32:11.829Z,56.62
2024-01-31T22:34:41.022Z,56.74
2024-01-31T22:37:10.932Z,57.02
2024-01-31T22:39:40.404Z,57.43
2024-01-31T22:42:09.228Z,57.35
2024-01-31T22:44:37.788Z,57.77
2024-01-31T22:47:06.830Z,58.18
2024-01-31T22:49:35.474Z,58.18
2024-01-31T22:52:04.224Z,58.25
2024-01-31T22:54:34.568Z,58.42
2024-01-31T22:57:03.158Z,58.72
2024-01-31T22:59:31.638Z,58.80
2024-01-31T23:02:00.078Z,59.14
2024-01-31T23:04:28.654Z,59.11
2024-01-31T23:06:57.321Z,59.24
2024-01-31T23:09:25.999Z,59.41
2024-01-31T23:11:55.806Z,59.48
2024-01-31T23:14:24.293Z,59.64
2024-01-31T23:16:52.673Z,59.51
2024-01-31T23:19:21.408Z,59.64
2024-01-31T23:21:49.933Z,59.77
2024-01-31T23:24:18.471Z,59.69
2024-01-31T23:26:46.930Z,59.87
2024-01-31T23:29:17.233Z,59.54
2024-01-31T23:31:46.204Z,59.74
2024-01-31T23:34:14.855Z,59.83
2024-01-31T23:36:45.104Z,60.18
2024-01-31T23:39:13.762Z,60.08
2024-01-31T23:41:42.525Z,60.29
2024-01-31T23:44:11.008Z,60.18
2024-01-31T23:46:40.862Z,60.19
2024-01-31T23:49:09.423Z,60.38
2024-01-31T23:51:37.913Z,60.35
2024-01-31T23:54:06.540Z,60.41
2024-01-31T23:56:35.027Z,60.51
2024-01-31T23:59:03.506Z,60.44
